METAR Data
IDs: Format: Raw Decoded Include TAF

Data at: 2204 UTC 01 Dec 2021

VECC 012200Z 00000KT 2200 BR NSC 21/18 Q1012 NOSIG